Pagina principale
METAR-TAF:

METAR-TAF

Aeroporti :

Aeroporto Internazionale di Malé-Ibrahim Nasir

Malé, Maldive

latitudine: 04-12N, longitudine: 073-32E, altezza: 2 m

Osservazione

Il bollettino è stato emesso 56 minuti fa, alle 18:00 UTC
Vento 4 kt da nord
Temperature 29°C
Umidità 74%
Pressione 1013 hPa
Visibilità 10 km o più
Poco nuvoloso ad un'altezza di 1800 ft, Cumulo congesto.
Nubi sparse ad un'altezza di 28000 ft

METAR: VRMM 211800Z 01004KT 9999 FEW018TCU SCT280 29/24 Q1013 NOSIG

Ora: 23:56 (18:56 UTC)

Previsione

Il bollettino è stato emesso 13 ore e 56 minuti fa, alle 05:00 UTC
Previsione valida dal 21 alle 06 UTC al 22 alle 12 UTC
Vento 5 kt da nord/nord-ovest
Visibilità 10 km o più
Poco nuvoloso ad un'altezza di 1800 ft
Temporaneamente
dal 21 alle 10 UTC al 21 alle 16 UTC
Visibilità: 5000 m
Poco nuvoloso ad un'altezza di 1800 ft, Cumulonembo.
rovesci di pioggia

TAF: VRMM 210500Z 2106/2212 33005KT 9999 FEW018 TEMPO 2110/2116 5000 -SHRA FEW018CB

Osservazioni e previsioni meteorologiche di più di 4000 aeroporti (messaggi METAR e TAF).

Le stazioni disponibili sono rappresentate dai dischi gialli e rossi sulla carta.

Puntare il mouse per vedere il nome della stazione.

Clicca sopra per visualizzare le osservazioni e previsioni meteorologiche.

Per cambiare la mappa : fare clic sui pulsanti verdi con una croce nera per ingrandire, il pulsante verde con un trattino per diminuire, o sulla freccia verde per le mappe adiacenti.


METAR-TAF: